Bk Champc? — DSPN5 — position and weather

sailwx.info

Track history (hours):
 
Tides and Currents Weather Stations Pressure Air Temp Water Temp Dewpoint Dewpoint Depression Visibility Wind Speed Wind Dir Waves Ship Positions

Bk Champc?

Last reported at 2015-Jul-14 03:32 UTC. Time now 2015-Jul-29 04:55 UTC.
Position N 01°12' E 103°49'.
Warning: this ship's position is 15 days out of date.

Length 176 m.

Type: Ship. MMSI: 216797491.

Date/timePositionNaut miles runAvg speedWind from/ knotsBaromVisibWave heightAir tempDewpointWater temp
2015-Jul-14 03:32N 01°12' E 103°49'2 0.8
2015-Jul-14 01:32N 01°14' E 103°49'0 0.1
2015-Jul-14 00:32N 01°13' E 103°49'0 0.0
2015-Jul-13 18:26N 01°13' E 103°49'0 0.0
2015-Jul-13 16:33N 01°14' E 103°49'1 0.3
2015-Jul-13 14:29N 01°13' E 103°49'5 5.0
2015-Jul-13 13:34N 01°14' E 103°54'  
2015-Jul-07 19:05N 23°42' E 118°02'912.0
2015-Jul-07 18:21N 23°48' E 118°09'7111.7
2015-Jul-07 12:16N 24°36' E 119°06'1212.5
2015-Jul-07 11:20N 24°44' E 119°16'41711.0
2015-Jul-05 21:31N 31°06' E 122°24'1313.6
2015-Jul-05 20:34N 31°11' E 122°10'1312.7
2015-Jul-05 19:33N 31°15' E 121°56'1010.4
2015-Jul-05 18:33N 31°19' E 121°45'6 5.9
2015-Jul-05 17:33N 31°21' E 121°38'7 7.4
2015-Jul-05 16:33N 31°25' E 121°31'8 8.1
2015-Jul-05 15:33N 31°31' E 121°24'1211.5
2015-Jul-05 14:34N 31°38' E 121°14'1312.8
2015-Jul-05 13:32N 31°46' E 121°02'1211.6
2015-Jul-05 12:30N 31°55' E 120°52'1111.0
2015-Jul-05 11:32N 32°00' E 120°41'1212.1
2015-Jul-05 10:33N 32°02' E 120°27'6 6.2
2015-Jul-05 09:31N 31°58' E 120°21'2210.4
2015-Jul-05 07:25N 32°03' E 119°56'  
Track history (hours):
 
Tides and Currents Weather Stations Pressure Air Temp Water Temp Dewpoint Dewpoint Depression Visibility Wind Speed Wind Dir Waves Ship Positions

Bk Champc?

Last reported at 2015-Jul-14 03:32 UTC. Time now 2015-Jul-29 04:55 UTC.
Position N 01°12' E 103°49'.
Warning: this ship's position is 15 days out of date.

Length 176 m.

Type: Ship. MMSI: 216797491.

Date/timePositionNaut miles runAvg speedWind from/ knotsBaromVisibWave heightAir tempDewpointWater temp
2015-Jul-14 03:32N 01°12' E 103°49'2 0.8
2015-Jul-14 01:32N 01°14' E 103°49'0 0.1
2015-Jul-14 00:32N 01°13' E 103°49'0 0.0
2015-Jul-13 18:26N 01°13' E 103°49'0 0.0
2015-Jul-13 16:33N 01°14' E 103°49'1 0.3
2015-Jul-13 14:29N 01°13' E 103°49'5 5.0
2015-Jul-13 13:34N 01°14' E 103°54'  
2015-Jul-07 19:05N 23°42' E 118°02'912.0
2015-Jul-07 18:21N 23°48' E 118°09'7111.7
2015-Jul-07 12:16N 24°36' E 119°06'1212.5
2015-Jul-07 11:20N 24°44' E 119°16'41711.0
2015-Jul-05 21:31N 31°06' E 122°24'1313.6
2015-Jul-05 20:34N 31°11' E 122°10'1312.7
2015-Jul-05 19:33N 31°15' E 121°56'1010.4
2015-Jul-05 18:33N 31°19' E 121°45'6 5.9
2015-Jul-05 17:33N 31°21' E 121°38'7 7.4
2015-Jul-05 16:33N 31°25' E 121°31'8 8.1
2015-Jul-05 15:33N 31°31' E 121°24'1211.5
2015-Jul-05 14:34N 31°38' E 121°14'1312.8
2015-Jul-05 13:32N 31°46' E 121°02'1211.6
2015-Jul-05 12:30N 31°55' E 120°52'1111.0
2015-Jul-05 11:32N 32°00' E 120°41'1212.1
2015-Jul-05 10:33N 32°02' E 120°27'6 6.2
2015-Jul-05 09:31N 31°58' E 120°21'2210.4
2015-Jul-05 07:25N 32°03' E 119°56'  

Dump ship's entire track history